createdAt,value
2019-05-20T00:02:43.390Z,92682.80
2019-05-20T00:13:17.214Z,92686.62
2019-05-20T00:23:50.746Z,92705.83
2019-05-20T00:34:34.749Z,92701.20
2019-05-20T00:44:58.880Z,92701.20
2019-05-20T00:55:40.450Z,92703.58
2019-05-20T01:06:13.800Z,92714.80
2019-05-20T01:16:47.324Z,92719.40
2019-05-20T01:27:20.589Z,92727.19
2019-05-20T01:37:53.505Z,92719.14
2019-05-20T01:48:27.269Z,92716.70
2019-05-20T01:59:00.281Z,92716.63
2019-05-20T02:09:33.998Z,92710.25
2019-05-20T02:20:07.860Z,92704.16
2019-05-20T02:30:41.427Z,92705.18
2019-05-20T02:41:15.147Z,92717.08
2019-05-20T02:51:49.781Z,92716.60
2019-05-20T03:02:23.263Z,92724.19
2019-05-20T03:12:56.928Z,92733.24
2019-05-20T03:23:30.374Z,92731.64
2019-05-20T03:34:04.059Z,92730.88
2019-05-20T03:44:37.628Z,92744.84
2019-05-20T03:55:10.975Z,92769.98
2019-05-20T04:05:44.488Z,92770.53
2019-05-20T04:16:18.030Z,92777.14
2019-05-20T04:26:51.715Z,92773.64
2019-05-20T04:37:24.417Z,92582.45
2019-05-20T04:47:57.288Z,92782.53
2019-05-20T04:58:30.771Z,92782.89
2019-05-20T05:09:04.482Z,92775.00
2019-05-20T05:19:37.759Z,92784.61
2019-05-20T05:30:11.593Z,92776.80
2019-05-20T05:40:47.109Z,92790.16
2019-05-20T05:51:20.572Z,92783.25
2019-05-20T06:01:54.093Z,92799.05
2019-05-20T06:12:27.635Z,92800.06
2019-05-20T06:23:00.486Z,92797.92
2019-05-20T06:33:33.745Z,92800.56
2019-05-20T06:44:06.428Z,92790.58
2019-05-20T06:54:39.857Z,92793.03
2019-05-20T07:05:13.230Z,92807.91
2019-05-20T07:15:46.836Z,92810.97
2019-05-20T07:26:20.197Z,92797.64
2019-05-20T07:37:03.099Z,92795.70
2019-05-20T07:47:29.537Z,92809.48
2019-05-20T07:58:05.937Z,92807.06
2019-05-20T08:08:39.490Z,92810.55
2019-05-20T08:19:12.976Z,92814.80
2019-05-20T08:29:46.311Z,92641.00
2019-05-20T08:40:19.789Z,92821.55
2019-05-20T08:50:53.062Z,92831.64
2019-05-20T09:01:26.770Z,92827.41
2019-05-20T09:12:00.522Z,92822.14
2019-05-20T09:22:34.068Z,92823.27
2019-05-20T09:33:07.653Z,92807.08
2019-05-20T09:43:41.082Z,92796.64
2019-05-20T09:54:14.287Z,92800.27
2019-05-20T10:04:47.892Z,92791.98
2019-05-20T10:15:21.304Z,92792.97
2019-05-20T10:25:54.794Z,92780.45
2019-05-20T10:36:28.536Z,92785.02
2019-05-20T10:47:02.214Z,92792.58
2019-05-20T10:57:36.010Z,92812.20
2019-05-20T11:08:09.291Z,92778.08
2019-05-20T11:18:42.764Z,92773.91
2019-05-20T11:29:16.248Z,92776.91
2019-05-20T11:39:49.646Z,92777.03
2019-05-20T11:50:23.489Z,92767.63
2019-05-20T12:00:57.149Z,92781.31
2019-05-20T12:11:30.940Z,92766.37
2019-05-20T12:22:04.458Z,92803.88
2019-05-20T12:32:37.978Z,92818.67
2019-05-20T12:43:11.377Z,92848.53
2019-05-20T12:53:45.018Z,92854.22
2019-05-20T13:04:17.657Z,92878.12
2019-05-20T13:14:50.994Z,92867.91
2019-05-20T13:25:24.697Z,92882.20
2019-05-20T13:35:58.334Z,92905.20
2019-05-20T13:46:31.879Z,92898.86
2019-05-20T13:57:05.160Z,92914.08
2019-05-20T14:07:38.862Z,92919.44
2019-05-20T14:18:13.567Z,92914.98
2019-05-20T14:28:47.149Z,92918.11
2019-05-20T14:39:21.296Z,92939.84
2019-05-20T14:49:54.843Z,92969.87
2019-05-20T15:00:30.446Z,92954.21
2019-05-20T15:11:03.911Z,92921.40
2019-05-20T15:21:37.769Z,92902.77
2019-05-20T15:32:11.417Z,92902.22
2019-05-20T15:42:44.192Z,92908.72
2019-05-20T15:53:17.871Z,92902.29
2019-05-20T16:03:51.670Z,92894.90
2019-05-20T16:14:25.661Z,92901.27
2019-05-20T16:24:58.437Z,92897.52
2019-05-20T16:35:32.124Z,92893.59
2019-05-20T16:46:05.553Z,92896.63
2019-05-20T16:56:38.834Z,92908.46
2019-05-20T17:07:12.576Z,92915.05
2019-05-20T17:17:45.973Z,92923.88
2019-05-20T17:28:19.473Z,92935.06
2019-05-20T17:38:53.074Z,92927.25
2019-05-20T17:49:26.571Z,92953.39
2019-05-20T18:00:00.176Z,92952.89
2019-05-20T18:10:33.712Z,92955.09
2019-05-20T18:21:07.308Z,92945.30
2019-05-20T18:31:40.941Z,92952.80
2019-05-20T18:42:14.586Z,92969.43
2019-05-20T18:52:48.423Z,92932.20
2019-05-20T19:03:21.661Z,92967.67
2019-05-20T19:13:54.690Z,92968.92
2019-05-20T19:24:28.002Z,92969.64
2019-05-20T19:35:01.591Z,92984.02
2019-05-20T19:45:35.204Z,92981.83
2019-05-20T19:56:08.821Z,92967.91
2019-05-20T20:06:42.378Z,92979.61
2019-05-20T20:17:15.971Z,92990.36
2019-05-20T20:27:49.638Z,93007.03
2019-05-20T20:38:23.086Z,93028.42
2019-05-20T20:48:56.389Z,93023.38
2019-05-20T20:59:29.198Z,93018.39
2019-05-20T21:10:02.734Z,93036.83
2019-05-20T21:20:36.297Z,93041.92
2019-05-20T21:31:09.910Z,93022.23
2019-05-20T21:41:43.299Z,93022.73
2019-05-20T21:52:17.010Z,93036.32
2019-05-20T22:02:49.726Z,93024.72
2019-05-20T22:13:22.475Z,93042.44
2019-05-20T22:23:58.184Z,93049.30
2019-05-20T22:34:31.705Z,93044.83
2019-05-20T22:45:05.316Z,93046.95
2019-05-20T22:55:38.026Z,93065.49
2019-05-20T23:06:11.585Z,93077.02
2019-05-20T23:16:45.076Z,93067.05
2019-05-20T23:27:18.476Z,93046.73
2019-05-20T23:37:52.000Z,93043.70
2019-05-20T23:48:25.851Z,93063.33
2019-05-20T23:58:59.326Z,93050.66
